Time;durP1;ratioP1;P1;durP2;ratioP2;P2;SDS_P1;SDS_P2;PMS_P1;PMS_P2;Temp;Humidity;BMP_temperature;BMP_pressure;BME280_temperature;BME280_humidity;BME280_pressure;Samples;Min_cycle;Max_cycle;Signal;HPM_P1;HPM_P2
2022/04/27 00:01:50;;;;;;;4.53;4.30;;;;;;;18.08;66.30;92328.31;5079075;27;20214;-74
2022/04/27 00:04:18;;;;;;;5.20;4.72;;;;;;;18.10;65.87;92323.91;5078966;27;20568;-76
2022/04/27 00:06:45;;;;;;;4.65;4.45;;;;;;;18.22;65.26;92322.19;5079918;27;20234;-76
2022/04/27 00:09:12;;;;;;;4.30;4.05;;;;;;;18.13;65.37;92317.78;5079287;27;20688;-76
2022/04/27 00:11:41;;;;;;;4.53;4.13;;;;;;;18.12;65.53;92313.59;5079074;27;20591;-76
2022/04/27 00:14:08;;;;;;;4.32;4.13;;;;;;;17.90;66.73;92324.63;5078777;27;20638;-76
2022/04/27 00:16:36;;;;;;;4.53;4.32;;;;;;;17.89;66.95;92325.56;5079099;27;20188;-76
2022/04/27 00:19:03;;;;;;;4.88;4.47;;;;;;;17.80;66.99;92326.25;5078669;27;20208;-76
2022/04/27 00:21:31;;;;;;;4.85;4.60;;;;;;;17.88;66.50;92320.53;5079224;27;20460;-76
2022/04/27 00:23:58;;;;;;;4.50;4.28;;;;;;;18.01;66.74;92321.25;5078464;27;20235;-76
2022/04/27 00:26:25;;;;;;;4.40;4.20;;;;;;;17.96;66.45;92324.16;5078466;27;20588;-75
2022/04/27 00:28:54;;;;;;;4.53;4.13;;;;;;;18.24;66.02;92322.88;5078629;27;20625;-75
2022/04/27 00:31:21;;;;;;;4.57;4.03;;;;;;;18.19;65.57;92319.88;5078321;27;20200;-75
2022/04/27 00:33:48;;;;;;;4.70;4.43;;;;;;;18.32;65.31;92319.72;5078983;27;20610;-76
2022/04/27 00:36:15;;;;;;;4.90;4.35;;;;;;;18.17;65.47;92304.63;5078226;27;20628;-75
2022/04/27 00:38:43;;;;;;;4.63;4.32;;;;;;;18.23;65.37;92303.34;5078428;27;20535;-76
2022/04/27 00:41:10;;;;;;;4.57;4.38;;;;;;;18.31;65.34;92306.13;5078344;27;20552;-75
2022/04/27 00:43:39;;;;;;;4.10;3.90;;;;;;;18.51;64.58;92305.41;5078158;27;20571;-75
2022/04/27 00:46:09;;;;;;;6.68;5.25;;;;;;;18.46;64.73;92299.00;5077391;27;20583;-76
2022/04/27 00:48:39;;;;;;;4.70;4.47;;;;;;;18.05;65.68;92305.56;5077650;27;20588;-76
2022/04/27 00:51:07;;;;;;;4.18;3.97;;;;;;;18.18;65.62;92308.81;5078031;27;20232;-76
2022/04/27 00:53:35;;;;;;;4.20;4.00;;;;;;;18.35;64.84;92315.19;5077653;27;20196;-76
2022/04/27 00:56:03;;;;;;;4.43;3.88;;;;;;;18.30;64.58;92301.94;5078374;27;20223;-76
2022/04/27 00:58:33;;;;;;;4.53;4.20;;;;;;;18.44;63.94;92321.34;5077768;27;20456;-75
2022/04/27 01:01:01;;;;;;;6.00;4.00;;;;;;;18.26;64.00;92315.88;5077992;27;20545;-76
2022/04/27 01:03:29;;;;;;;3.92;3.72;;;;;;;18.41;64.22;92309.59;5078191;27;20231;-76
2022/04/27 01:05:59;;;;;;;4.53;4.32;;;;;;;18.43;63.54;92302.59;5078727;27;20584;-76
2022/04/27 01:08:28;;;;;;;3.93;3.73;;;;;;;18.16;63.84;92297.88;5077951;27;20564;-76
2022/04/27 01:10:56;;;;;;;4.30;3.90;;;;;;;18.12;64.37;92305.91;5077976;27;20549;-75
2022/04/27 01:13:23;;;;;;;3.57;3.30;;;;;;;18.18;63.85;92305.44;5078346;27;20519;-76
2022/04/27 01:15:51;;;;;;;3.93;3.73;;;;;;;18.34;63.46;92300.78;5065939;27;20489;-76
2022/04/27 01:18:18;;;;;;;4.35;3.95;;;;;;;18.19;63.87;92294.28;5077667;27;20188;-76
2022/04/27 01:20:47;;;;;;;3.80;3.50;;;;;;;18.55;63.18;92300.88;5078090;27;20227;-75
2022/04/27 01:23:15;;;;;;;4.30;3.95;;;;;;;18.34;63.77;92287.16;5077492;27;20571;-75
2022/04/27 01:25:52;;;;;;;4.30;3.97;;;;;;;18.69;61.94;92276.78;5077321;27;20223;-75
2022/04/27 01:28:21;;;;;;;4.22;3.95;;;;;;;18.51;63.33;92279.81;5077738;27;20544;-75
2022/04/27 01:30:49;;;;;;;4.35;4.15;;;;;;;18.08;64.02;92266.19;5077132;27;20265;-76
2022/04/27 01:33:17;;;;;;;4.18;3.90;;;;;;;18.02;64.16;92295.59;5077783;27;20223;-75
2022/04/27 01:35:46;;;;;;;4.88;4.57;;;;;;;17.86;64.17;92268.75;5077080;27;20300;-75
2022/04/27 01:38:15;;;;;;;4.47;4.27;;;;;;;17.95;64.51;92288.50;5078012;27;20500;-76
2022/04/27 01:40:42;;;;;;;4.35;4.05;;;;;;;17.72;64.78;92274.91;5077916;27;20470;-75
2022/04/27 01:43:09;;;;;;;4.70;4.50;;;;;;;18.17;63.52;92294.41;5077622;27;20466;-75
2022/04/27 01:45:36;;;;;;;4.40;4.20;;;;;;;18.21;63.08;92295.78;5076727;27;20236;-76
2022/04/27 01:48:03;;;;;;;4.65;4.35;;;;;;;18.22;63.06;92289.75;5076406;27;20670;-76
2022/04/27 01:50:31;;;;;;;4.77;4.37;;;;;;;17.92;63.57;92276.75;5076734;27;20584;-76
2022/04/27 01:55:46;;;;;;;4.43;4.03;;;;;;;18.09;63.30;92290.78;5067637;27;20228;-75
2022/04/27 01:58:13;;;;;;;4.20;4.00;;;;;;;17.89;63.51;92281.28;5076157;27;20763;-76
2022/04/27 02:00:40;;;;;;;4.27;3.97;;;;;;;17.82;63.91;92286.03;5078259;27;20204;-75
2022/04/27 02:03:07;;;;;;;4.30;4.10;;;;;;;17.71;63.89;92289.41;5077198;27;20559;-76
2022/04/27 02:05:34;;;;;;;4.17;3.97;;;;;;;17.52;64.66;92283.22;5077491;27;20180;-76
2022/04/27 02:08:03;;;;;;;4.40;4.20;;;;;;;17.37;65.38;92278.31;5076768;27;20471;-76
2022/04/27 02:10:31;;;;;;;4.20;4.00;;;;;;;16.99;65.79;92260.69;5077096;27;20519;-76
2022/04/27 02:12:58;;;;;;;4.53;4.33;;;;;;;17.02;66.05;92274.97;5076305;27;20477;-76
2022/04/27 02:15:25;;;;;;;3.77;3.57;;;;;;;17.04;65.99;92279.97;5075645;27;20575;-76
2022/04/27 02:17:52;;;;;;;5.73;5.37;;;;;;;16.86;66.41;92288.03;5076532;27;20591;-77
2022/04/27 02:20:19;;;;;;;65.10;21.20;;;;;;;16.86;66.43;92284.66;5077007;27;20533;-77
2022/04/27 02:22:47;;;;;;;28.23;11.30;;;;;;;16.69;66.74;92278.22;5076712;27;20572;-77
2022/04/27 02:25:15;;;;;;;6.13;5.73;;;;;;;16.73;66.76;92287.25;5076328;27;20561;-76
2022/04/27 02:27:43;;;;;;;5.80;4.70;;;;;;;16.69;66.34;92283.31;5076409;27;20600;-76
2022/04/27 02:30:12;;;;;;;5.80;5.30;;;;;;;16.70;66.24;92277.28;5076264;27;20552;-76
2022/04/27 02:32:39;;;;;;;5.17;4.67;;;;;;;16.58;65.93;92284.03;5076675;27;20467;-76
2022/04/27 02:35:07;;;;;;;4.60;4.33;;;;;;;16.85;65.42;92280.47;5076545;27;20647;-75
2022/04/27 02:37:35;;;;;;;4.40;4.20;;;;;;;16.66;64.84;92287.81;5075977;27;20656;-76
2022/04/27 02:40:04;;;;;;;4.50;4.20;;;;;;;16.65;65.20;92287.00;5074365;27;20580;-76
2022/04/27 02:42:33;;;;;;;4.07;3.87;;;;;;;16.69;65.01;92288.41;5076446;27;20204;-76
2022/04/27 02:45:00;;;;;;;4.27;4.07;;;;;;;16.06;66.34;92275.84;5076427;27;20549;-76
2022/04/27 02:47:27;;;;;;;4.47;4.17;;;;;;;16.10;66.35;92283.19;5076298;27;20550;-76
2022/04/27 02:52:38;;;;;;;4.60;4.30;;;;;;;15.97;66.29;92277.31;5065080;28;20705;-76
2022/04/27 02:55:06;;;;;;;3.50;3.30;;;;;;;16.03;66.21;92266.69;5077111;27;20247;-76
2022/04/27 02:57:35;;;;;;;4.77;4.47;;;;;;;16.06;66.18;92258.81;5076535;27;20470;-77
2022/04/27 03:00:02;;;;;;;4.60;4.30;;;;;;;15.77;66.67;92271.94;5076288;27;20531;-76
2022/04/27 03:02:29;;;;;;;5.20;4.80;;;;;;;15.47;67.17;92250.16;5075453;27;20276;-78
2022/04/27 03:04:56;;;;;;;4.60;4.40;;;;;;;15.43;68.00;92276.72;5075600;27;20441;-76
2022/04/27 03:07:24;;;;;;;4.60;4.30;;;;;;;14.80;68.98;92211.34;5076000;27;20547;-76
2022/04/27 03:09:51;;;;;;;4.50;4.27;;;;;;;15.14;69.58;92280.38;5079433;27;20215;-77
2022/04/27 03:12:18;;;;;;;5.17;4.83;;;;;;;15.12;69.39;92275.38;5081513;27;20449;-76
2022/04/27 03:14:46;;;;;;;5.07;4.73;;;;;;;15.68;68.11;92284.38;5080598;27;20586;-76
2022/04/27 03:17:14;;;;;;;4.67;4.40;;;;;;;15.61;67.72;92282.34;5080481;27;20565;-77
2022/04/27 03:19:41;;;;;;;4.43;4.17;;;;;;;15.52;67.55;92272.78;5079992;27;20204;-76
2022/04/27 03:22:08;;;;;;;4.77;4.47;;;;;;;15.47;68.02;92287.53;5080315;27;20483;-75
2022/04/27 03:24:35;;;;;;;4.87;4.57;;;;;;;15.64;66.84;92290.59;5078829;27;20538;-75
2022/04/27 03:27:03;;;;;;;4.67;4.37;;;;;;;15.73;66.82;92287.44;5080685;27;20516;-75
2022/04/27 03:29:30;;;;;;;4.90;4.50;;;;;;;15.57;66.84;92291.09;5079884;27;20750;-77
2022/04/27 03:31:59;;;;;;;4.93;4.63;;;;;;;15.66;67.19;92282.88;5079922;27;20582;-76
2022/04/27 03:34:26;;;;;;;4.77;4.10;;;;;;;15.38;67.67;92294.03;5079228;27;20267;-76
2022/04/27 03:36:53;;;;;;;5.13;4.73;;;;;;;15.18;68.36;92284.34;5080051;27;20625;-77
2022/04/27 03:39:20;;;;;;;4.93;4.63;;;;;;;15.14;68.67;92285.47;5080927;27;20560;-77
2022/04/27 03:41:47;;;;;;;5.07;4.60;;;;;;;15.14;68.63;92293.09;5080673;27;20658;-77
2022/04/27 03:44:14;;;;;;;5.23;4.93;;;;;;;15.29;68.08;92302.28;5072263;27;20637;-76
2022/04/27 03:46:41;;;;;;;5.60;5.20;;;;;;;15.32;67.26;92302.09;5074767;27;20587;-76
2022/04/27 03:49:10;;;;;;;5.33;5.03;;;;;;;15.81;66.76;92301.38;5079530;27;20572;-76
2022/04/27 03:51:37;;;;;;;4.97;4.57;;;;;;;15.41;66.92;92285.38;5078805;27;20568;-75
2022/04/27 03:54:04;;;;;;;5.30;4.90;;;;;;;15.43;66.64;92309.84;5079193;27;20546;-77
2022/04/27 03:56:32;;;;;;;5.53;5.03;;;;;;;15.52;66.61;92311.78;5078872;27;20643;-76
2022/04/27 03:58:59;;;;;;;6.40;5.80;;;;;;;15.44;66.05;92297.88;5079067;27;20533;-77
2022/04/27 04:01:26;;;;;;;11.80;7.00;;;;;;;15.60;65.72;92316.38;5076706;27;20600;-75
2022/04/27 04:03:55;;;;;;;15.50;8.43;;;;;;;15.40;66.07;92293.94;5077155;27;20571;-75
2022/04/27 04:06:23;;;;;;;10.07;6.87;;;;;;;15.95;65.15;92324.19;5078980;27;20522;-75
2022/04/27 04:08:50;;;;;;;6.30;5.63;;;;;;;15.61;65.47;92317.97;5078730;27;20196;-76
2022/04/27 04:11:19;;;;;;;6.83;5.67;;;;;;;15.50;65.70;92311.03;5076978;27;20576;-75
2022/04/27 04:13:47;;;;;;;6.80;6.17;;;;;;;15.60;65.30;92308.75;5078593;27;20614;-76
2022/04/27 04:16:14;;;;;;;11.27;6.53;;;;;;;15.88;64.83;92328.91;5079844;27;20485;-75
2022/04/27 04:18:41;;;;;;;6.87;6.37;;;;;;;15.90;64.82;92323.69;5078891;27;20533;-77
2022/04/27 04:21:08;;;;;;;8.10;6.07;;;;;;;16.09;64.80;92331.72;5068308;27;20649;-75
2022/04/27 04:23:37;;;;;;;6.10;5.60;;;;;;;16.39;63.63;92319.38;5076940;27;20257;-75
2022/04/27 04:28:48;;;;;;;7.43;6.77;;;;;;;16.64;62.65;92335.56;5073586;27;20469;-75
2022/04/27 04:31:17;;;;;;;6.03;5.63;;;;;;;16.69;61.84;92320.75;5066572;27;20208;-76
2022/04/27 04:33:45;;;;;;;6.77;6.03;;;;;;;16.97;61.52;92341.66;5058912;27;20609;-74
2022/04/27 04:36:12;;;;;;;7.67;5.87;;;;;;;17.16;60.25;92348.81;5055888;27;20599;-75
2022/04/27 04:38:40;;;;;;;5.20;4.90;;;;;;;17.40;60.65;92339.38;5061731;27;20205;-74
2022/04/27 04:41:07;;;;;;;6.87;6.30;;;;;;;16.88;61.41;92337.22;5062178;27;20204;-74
2022/04/27 04:43:35;;;;;;;8.83;5.80;;;;;;;16.65;63.05;92332.91;5061381;27;20495;-73
2022/04/27 04:46:02;;;;;;;8.67;7.03;;;;;;;16.79;63.00;92337.84;5060068;27;20529;-74
2022/04/27 04:48:29;;;;;;;7.23;6.53;;;;;;;16.77;63.40;92332.06;5059779;27;20200;-75
2022/04/27 04:50:56;;;;;;;11.17;8.50;;;;;;;16.82;63.38;92344.47;5058042;27;20653;-74
2022/04/27 04:53:24;;;;;;;8.60;7.83;;;;;;;16.97;63.59;92348.50;5061954;27;20495;-75
2022/04/27 04:55:52;;;;;;;13.07;9.77;;;;;;;17.28;62.75;92342.81;5059688;27;20684;-75
2022/04/27 04:58:20;;;;;;;16.43;11.93;;;;;;;16.97;63.08;92343.38;5059850;27;20573;-74
2022/04/27 05:00:48;;;;;;;13.70;10.77;;;;;;;16.98;63.10;92340.72;5060258;27;20595;-75
2022/04/27 05:03:15;;;;;;;11.40;9.60;;;;;;;17.14;62.94;92355.75;5062059;27;20513;-74
2022/04/27 05:06:07;;;;;;;13.00;10.80;;;;;;;17.69;61.27;92357.69;5057720;27;20600;-75
2022/04/27 05:08:34;;;;;;;15.50;11.37;;;;;;;17.17;62.86;92363.22;5059886;27;20565;-75
2022/04/27 05:11:03;;;;;;;14.90;12.43;;;;;;;17.46;62.65;92355.19;5059638;27;20545;-74
2022/04/27 05:13:30;;;;;;;17.20;10.80;;;;;;;17.14;63.22;92345.53;5059499;27;20192;-74
2022/04/27 05:15:58;;;;;;;11.13;9.97;;;;;;;17.16;63.44;92342.88;5057966;27;20700;-75
2022/04/27 05:18:25;;;;;;;7.83;7.23;;;;;;;16.87;64.49;92314.34;5061170;27;20581;-75
2022/04/27 05:20:52;;;;;;;11.23;8.20;;;;;;;16.88;65.48;92355.06;5060009;27;20669;-74
2022/04/27 05:23:19;;;;;;;10.37;8.57;;;;;;;16.95;65.72;92363.13;5061490;27;20526;-75
2022/04/27 05:25:46;;;;;;;9.43;8.63;;;;;;;16.99;65.41;92357.69;5059509;27;20550;-76
2022/04/27 05:28:14;;;;;;;9.30;8.40;;;;;;;17.08;65.67;92353.66;5059126;27;20608;-74
2022/04/27 05:33:26;;;;;;;8.43;7.73;;;;;;;16.77;66.87;92354.19;5061426;27;20629;-74
2022/04/27 05:35:53;;;;;;;11.20;8.53;;;;;;;16.90;66.72;92342.22;5059176;27;20228;-74
2022/04/27 05:38:20;;;;;;;8.33;7.53;;;;;;;17.05;66.39;92350.50;5059345;27;20257;-74
2022/04/27 05:40:48;;;;;;;8.00;6.57;;;;;;;17.27;65.83;92359.06;5057053;27;20500;-73
2022/04/27 05:43:16;;;;;;;7.20;6.70;;;;;;;17.59;64.78;92350.78;5058941;27;20550;-74
2022/04/27 05:45:45;;;;;;;6.97;6.57;;;;;;;17.39;65.19;92350.53;5061164;27;20588;-75
2022/04/27 05:48:13;;;;;;;13.97;9.57;;;;;;;17.60;64.81;92355.00;5061429;27;20606;-76
2022/04/27 05:50:40;;;;;;;8.23;6.77;;;;;;;17.61;64.93;92364.31;5057978;27;20540;-75
2022/04/27 05:53:07;;;;;;;6.13;5.80;;;;;;;17.65;64.61;92360.59;5058878;27;20300;-76
2022/04/27 05:55:43;;;;;;;7.03;6.53;;;;;;;18.06;63.83;92352.41;5058155;27;20232;-76
2022/04/27 05:58:11;;;;;;;5.78;5.32;;;;;;;17.76;64.40;92358.88;5059791;27;20488;-76
2022/04/27 06:00:40;;;;;;;5.93;5.63;;;;;;;17.96;64.52;92354.84;5060619;27;20192;-75
2022/04/27 06:03:07;;;;;;;5.60;5.30;;;;;;;17.53;65.06;92357.16;5065703;27;20573;-76
2022/04/27 06:05:34;;;;;;;4.90;4.70;;;;;;;17.66;65.06;92357.94;5058418;27;20580;-74
2022/04/27 06:08:01;;;;;;;5.70;5.20;;;;;;;17.58;65.44;92351.69;5072586;27;20228;-75
2022/04/27 06:10:28;;;;;;;6.13;5.30;;;;;;;17.75;64.98;92347.00;5056139;27;20533;-76
2022/04/27 06:12:55;;;;;;;5.18;4.88;;;;;;;17.88;64.68;92349.47;5058258;27;20669;-76
2022/04/27 06:15:23;;;;;;;6.77;5.17;;;;;;;17.79;65.21;92338.22;5057669;27;20581;-74
2022/04/27 06:17:51;;;;;;;5.03;4.73;;;;;;;18.31;63.73;92354.69;5060307;27;20212;-74
2022/04/27 06:20:19;;;;;;;5.30;4.93;;;;;;;18.21;63.56;92346.94;5057821;27;20589;-76
2022/04/27 06:22:46;;;;;;;5.23;4.83;;;;;;;18.17;62.88;92331.94;5057954;27;20633;-75
2022/04/27 06:25:13;;;;;;;6.70;5.25;;;;;;;18.35;63.38;92361.22;5058556;27;20550;-75
2022/04/27 06:27:41;;;;;;;7.00;5.38;;;;;;;18.08;64.15;92330.88;5059003;27;20573;-75
2022/04/27 06:30:08;;;;;;;5.90;5.53;;;;;;;18.45;63.74;92354.47;5058440;27;20589;-75
2022/04/27 06:32:35;;;;;;;6.10;5.50;;;;;;;18.36;63.80;92347.53;5060449;27;20539;-75
2022/04/27 06:35:06;;;;;;;5.70;5.30;;;;;;;18.71;63.50;92334.56;5056000;27;20232;-76
2022/04/27 06:37:33;;;;;;;6.07;4.72;;;;;;;18.56;63.51;92349.38;5056526;27;20511;-75
2022/04/27 06:40:00;;;;;;;5.22;4.75;;;;;;;18.57;63.15;92348.44;5060574;27;20612;-74
2022/04/27 06:42:32;;;;;;;5.47;5.18;;;;;;;18.89;62.27;92345.94;5058489;27;20474;-75
2022/04/27 06:45:11;;;;;;;5.78;5.40;;;;;;;18.82;61.08;92297.88;5058717;28;20491;-75
2022/04/27 06:47:38;;;;;;;7.38;5.32;;;;;;;18.78;61.36;92297.31;5059027;27;20216;-75
2022/04/27 06:50:11;;;;;;;5.45;5.05;;;;;;;19.39;60.19;92338.50;5060224;27;20557;-74
2022/04/27 06:52:42;;;;;;;4.90;4.60;;;;;;;19.50;59.23;92355.59;5059347;28;20470;-75
2022/04/27 06:55:10;;;;;;;4.85;4.40;;;;;;;19.42;58.49;92338.28;5057788;28;20197;-74
2022/04/27 06:57:38;;;;;;;5.53;5.22;;;;;;;19.38;59.33;92350.50;5058521;28;20211;-75
2022/04/27 07:00:08;;;;;;;5.32;5.03;;;;;;;19.42;59.39;92345.97;5056285;28;20573;-73
2022/04/27 07:02:36;;;;;;;5.22;4.82;;;;;;;19.35;59.49;92347.41;5055364;28;20651;-73
2022/04/27 07:05:05;;;;;;;5.50;4.95;;;;;;;19.23;58.49;92353.50;5056921;28;20473;-74
2022/04/27 07:07:34;;;;;;;4.25;3.95;;;;;;;19.40;57.08;92342.72;5054597;28;20509;-75
2022/04/27 07:10:01;;;;;;;4.20;3.83;;;;;;;19.55;57.48;92348.38;5054798;28;20611;-75
2022/04/27 07:12:28;;;;;;;7.03;4.35;;;;;;;19.79;56.81;92357.44;5054946;28;20574;-74
2022/04/27 07:14:56;;;;;;;3.95;3.65;;;;;;;19.87;56.32;92356.81;5057422;28;20482;-74
2022/04/27 07:17:23;;;;;;;4.32;4.13;;;;;;;20.06;55.69;92336.38;5059164;28;20695;-74
2022/04/27 07:19:51;;;;;;;5.00;4.70;;;;;;;20.20;55.68;92359.16;5057702;28;20200;-75
2022/04/27 07:22:18;;;;;;;5.68;5.20;;;;;;;20.48;55.00;92360.22;5055081;28;20554;-75
2022/04/27 07:24:49;;;;;;;5.80;5.30;;;;;;;20.79;54.81;92360.97;5057060;28;20585;-74
2022/04/27 07:27:16;;;;;;;5.18;4.88;;;;;;;20.61;53.99;92360.81;5058245;28;20603;-74
2022/04/27 07:29:43;;;;;;;5.68;5.13;;;;;;;20.46;54.24;92346.72;5059619;28;20203;-74
2022/04/27 07:32:10;;;;;;;5.50;5.20;;;;;;;20.72;53.88;92356.53;5057218;28;20683;-74
2022/04/27 07:34:38;;;;;;;5.28;4.97;;;;;;;20.58;53.71;92358.50;5057456;27;20682;-74
2022/04/27 07:37:05;;;;;;;5.10;4.80;;;;;;;20.73;54.46;92353.84;5056091;27;20640;-74
2022/04/27 07:39:32;;;;;;;4.93;4.60;;;;;;;20.92;53.79;92350.47;5062539;27;20290;-75
2022/04/27 07:42:01;;;;;;;5.18;4.88;;;;;;;21.28;52.78;92359.34;5060525;27;20587;-74
2022/04/27 07:44:28;;;;;;;4.30;4.10;;;;;;;21.18;53.00;92350.81;5052608;28;20196;-74
2022/04/27 07:46:56;;;;;;;5.93;4.57;;;;;;;21.06;51.71;92360.38;5061426;28;20576;-73
2022/04/27 07:49:23;;;;;;;4.70;4.50;;;;;;;21.28;51.59;92359.34;5058268;28;20504;-73
2022/04/27 07:51:51;;;;;;;4.97;4.57;;;;;;;21.56;51.78;92355.97;5055301;28;20669;-74
2022/04/27 07:54:18;;;;;;;9.68;6.55;;;;;;;21.84;51.67;92359.44;5056722;28;20471;-75
2022/04/27 07:56:46;;;;;;;5.55;5.05;;;;;;;21.84;51.38;92355.13;5060978;27;20608;-73
2022/04/27 07:59:14;;;;;;;7.35;5.55;;;;;;;22.02;52.21;92344.16;5061081;27;20597;-75
2022/04/27 08:01:41;;;;;;;5.05;4.65;;;;;;;22.08;51.28;92351.31;5060409;27;20556;-74
2022/04/27 08:04:08;;;;;;;4.55;4.28;;;;;;;22.33;49.63;92359.22;5062284;27;20292;-75
2022/04/27 08:06:36;;;;;;;4.78;4.43;;;;;;;22.33;48.78;92356.63;5061147;27;20507;-74
2022/04/27 08:09:06;;;;;;;4.93;4.03;;;;;;;22.05;50.45;92349.81;5059074;27;20528;-73
2022/04/27 08:11:34;;;;;;;4.45;4.15;;;;;;;22.61;49.45;92354.09;5060763;27;20584;-74
2022/04/27 08:14:01;;;;;;;4.45;4.25;;;;;;;22.53;47.94;92349.66;5061382;27;20466;-74
2022/04/27 08:16:33;;;;;;;4.05;3.83;;;;;;;22.82;47.73;92357.25;5057822;27;20644;-75
2022/04/27 08:19:03;;;;;;;4.65;4.25;;;;;;;22.76;46.96;92359.63;5058235;27;20661;-74
2022/04/27 08:21:33;;;;;;;4.88;4.50;;;;;;;22.36;48.23;92292.97;5060153;27;20577;-74
2022/04/27 08:24:03;;;;;;;5.32;4.82;;;;;;;22.68;47.35;92353.38;5059408;27;20584;-74
2022/04/27 08:26:31;;;;;;;6.88;6.28;;;;;;;22.94;46.89;92345.81;5061804;27;20582;-74
2022/04/27 08:28:58;;;;;;;4.25;4.05;;;;;;;22.60;47.27;92308.69;5057310;27;20554;-73
2022/04/27 08:31:26;;;;;;;9.23;5.47;;;;;;;23.05;47.12;92330.13;5056851;27;20192;-75
2022/04/27 08:33:55;;;;;;;4.93;4.57;;;;;;;23.09;42.19;92353.88;5056839;27;20266;-75
2022/04/27 08:36:23;;;;;;;5.63;5.13;;;;;;;22.95;42.02;92362.88;5057395;27;20623;-74
2022/04/27 08:38:51;;;;;;;3.65;3.10;;;;;;;23.31;42.33;92365.50;5058385;27;20197;-74
2022/04/27 08:41:18;;;;;;;3.80;3.60;;;;;;;23.44;43.43;92342.72;5055762;28;20655;-74
2022/04/27 08:43:45;;;;;;;3.42;3.33;;;;;;;23.29;41.83;92314.09;5057297;27;20624;-73
2022/04/27 08:46:14;;;;;;;9.52;4.15;;;;;;;23.70;43.69;92307.53;5060036;27;20537;-74
2022/04/27 08:48:46;;;;;;;3.97;3.50;;;;;;;23.59;41.55;92349.03;5060939;27;20608;-73
2022/04/27 08:51:15;;;;;;;2.83;2.72;;;;;;;23.58;38.83;92354.34;5058705;28;20442;-73
2022/04/27 08:53:43;;;;;;;2.83;2.72;;;;;;;23.59;39.68;92351.63;5057386;27;20638;-75
2022/04/27 08:56:10;;;;;;;3.30;3.10;;;;;;;23.74;40.14;92352.69;5059003;27;20273;-74
2022/04/27 08:58:37;;;;;;;3.00;2.88;;;;;;;23.87;36.76;92372.97;5058321;27;20473;-73
2022/04/27 09:01:04;;;;;;;3.03;2.83;;;;;;;23.92;37.78;92360.41;5057575;28;20514;-73
2022/04/27 09:03:33;;;;;;;3.97;3.67;;;;;;;24.19;38.27;92357.72;5058281;28;20544;-73
2022/04/27 09:06:02;;;;;;;3.47;3.03;;;;;;;24.30;40.07;92339.38;5056819;28;20262;-73
2022/04/27 09:08:39;;;;;;;2.42;2.22;;;;;;;24.54;39.34;92346.47;5056702;27;20518;-73
2022/04/27 09:11:15;;;;;;;2.72;2.63;;;;;;;24.68;39.83;92339.88;5057257;28;20632;-72
2022/04/27 09:13:46;;;;;;;3.05;2.85;;;;;;;24.99;40.27;92324.69;5055733;28;20280;-72
2022/04/27 09:16:14;;;;;;;3.97;3.03;;;;;;;24.97;41.65;92314.50;5055756;27;20204;-73
2022/04/27 09:21:56;;;;;;;2.70;2.60;;;;;;;25.30;37.46;92341.22;5062276;27;20219;-72
2022/04/27 09:24:24;;;;;;;4.32;2.47;;;;;;;25.13;37.17;92331.81;5074322;27;20232;-73
2022/04/27 09:27:14;;;;;;;3.38;3.17;;;;;;;25.28;42.43;92296.63;5076023;27;20187;-73
2022/04/27 09:29:42;;;;;;;2.90;2.67;;;;;;;25.16;42.53;92300.47;5074818;27;20567;-73
2022/04/27 09:32:17;;;;;;;3.05;2.30;;;;;;;25.41;40.61;92315.03;5074236;27;20568;-74
2022/04/27 09:34:45;;;;;;;2.85;2.60;;;;;;;25.32;40.26;92320.38;5075855;27;20485;-74
2022/04/27 09:37:17;;;;;;;2.67;2.58;;;;;;;25.58;41.85;92301.19;5075830;27;20573;-73
2022/04/27 09:39:46;;;;;;;2.40;2.30;;;;;;;25.36;38.89;92332.84;5075958;27;20575;-72
2022/04/27 09:42:14;;;;;;;3.47;2.88;;;;;;;25.60;39.85;92316.56;5076158;27;20473;-73
2022/04/27 09:44:42;;;;;;;2.90;2.70;;;;;;;25.44;40.41;92313.94;5065715;27;20600;-73
2022/04/27 09:47:12;;;;;;;4.18;3.97;;;;;;;25.68;40.08;92308.81;5076755;27;20450;-73
2022/04/27 09:49:43;;;;;;;2.40;2.28;;;;;;;25.97;40.06;92313.47;5076192;27;20587;-75
2022/04/27 09:52:14;;;;;;;3.05;2.95;;;;;;;25.79;40.49;92313.66;5072027;27;20553;-73
2022/04/27 09:54:46;;;;;;;3.15;3.05;;;;;;;25.35;40.32;92314.91;5056802;27;20255;-72
2022/04/27 09:57:16;;;;;;;3.80;3.50;;;;;;;25.41;42.00;92306.47;5061508;27;20565;-73
2022/04/27 09:59:46;;;;;;;2.90;2.80;;;;;;;25.61;40.69;92315.59;5064091;27;20475;-73
2022/04/27 10:02:22;;;;;;;2.53;2.42;;;;;;;25.54;39.47;92323.16;5071501;27;20200;-74
2022/04/27 10:04:50;;;;;;;2.60;2.50;;;;;;;25.22;41.53;92294.69;5068612;27;20616;-73
2022/04/27 10:07:22;;;;;;;2.75;2.65;;;;;;;25.29;39.15;92336.22;5064938;27;20592;-74
2022/04/27 10:09:51;;;;;;;2.65;2.55;;;;;;;25.13;41.51;92311.13;5061489;27;20204;-73
2022/04/27 10:12:21;;;;;;;2.47;2.38;;;;;;;25.21;40.23;92324.09;5076583;27;20604;-73
2022/04/27 10:14:48;;;;;;;2.75;2.15;;;;;;;25.29;38.83;92320.72;5075101;27;20571;-73
2022/04/27 10:17:16;;;;;;;4.25;2.70;;;;;;;25.51;39.47;92326.06;5059193;27;20556;-72
2022/04/27 10:20:01;;;;;;;2.38;2.28;;;;;;;26.49;37.30;92337.16;5072916;27;20564;-73
2022/04/27 10:22:31;;;;;;;2.55;2.45;;;;;;;27.11;37.58;92330.31;5063758;27;20561;-73
2022/04/27 10:25:12;;;;;;;2.47;2.38;;;;;;;27.86;35.35;92337.47;5063038;27;20560;-72
2022/04/27 10:27:40;;;;;;;2.75;2.60;;;;;;;28.28;34.96;92347.38;5056907;28;20530;-74
2022/04/27 10:30:10;;;;;;;2.28;2.17;;;;;;;29.48;32.20;92365.16;5053038;28;20637;-73
2022/04/27 10:32:42;;;;;;;3.17;1.90;;;;;;;30.08;31.19;92375.19;5053363;28;20277;-75
2022/04/27 10:35:18;;;;;;;2.22;2.13;;;;;;;30.42;30.47;92363.25;5054469;28;20219;-74
2022/04/27 10:37:47;;;;;;;3.10;2.17;;;;;;;30.74;29.17;92380.13;5054084;28;20497;-75
2022/04/27 10:40:36;;;;;;;2.10;2.00;;;;;;;32.82;27.54;92387.16;5056036;28;20189;-71
2022/04/27 10:43:05;;;;;;;3.10;2.13;;;;;;;32.28;27.44;92390.78;5055049;28;20580;-72
2022/04/27 10:45:32;;;;;;;2.30;2.20;;;;;;;31.86;27.42;92391.09;5055124;28;20197;-72
2022/04/27 10:47:59;;;;;;;2.40;2.28;;;;;;;31.40;26.70;92399.56;5055676;28;20628;-72
2022/04/27 10:50:34;;;;;;;2.10;2.00;;;;;;;30.98;27.00;92395.34;5054553;28;20557;-72
2022/04/27 10:53:23;;;;;;;2.25;2.15;;;;;;;30.97;27.46;92385.09;5054025;28;20473;-72
2022/04/27 10:55:54;;;;;;;2.20;2.10;;;;;;;30.22;28.92;92376.13;5055417;28;20542;-72
2022/04/27 10:58:32;;;;;;;2.28;2.17;;;;;;;29.76;28.94;92369.66;5079461;27;20564;-72
2022/04/27 11:01:31;;;;;;;2.15;2.05;;;;;;;28.74;29.72;92361.84;5095960;27;20649;-72
2022/04/27 11:04:16;;;;;;;2.47;2.30;;;;;;;27.06;32.75;92345.56;5075251;28;20599;-74
2022/04/27 11:07:15;;;;;;;2.70;2.60;;;;;;;26.81;33.52;92342.25;5073853;27;20832;-72
2022/04/27 11:10:10;;;;;;;1.80;1.80;;;;;;;26.57;32.96;92352.72;5064995;27;20645;-72
2022/04/27 11:12:40;;;;;;;2.63;2.45;;;;;;;25.98;33.44;92338.38;5073939;27;20633;-71
2022/04/27 11:15:10;;;;;;;2.50;2.40;;;;;;;26.14;35.51;92328.00;5075176;27;20212;-70
2022/04/27 11:17:38;;;;;;;50.13;30.63;;;;;;;26.92;35.07;92322.97;5054230;27;20492;-71
2022/04/27 11:20:08;;;;;;;2.13;2.03;;;;;;;27.19;34.12;92332.06;5074009;27;20709;-72
2022/04/27 11:22:39;;;;;;;2.90;2.13;;;;;;;26.98;33.18;92332.66;5074646;27;20544;-73
2022/04/27 11:25:08;;;;;;;1.92;1.83;;;;;;;27.05;33.07;92341.34;5059992;28;20592;-71
2022/04/27 11:27:36;;;;;;;1.45;1.45;;;;;;;26.96;33.22;92342.38;5053016;28;20557;-72
2022/04/27 11:30:08;;;;;;;1.88;1.77;;;;;;;27.10;34.28;92327.88;5054660;28;20554;-71
2022/04/27 11:32:35;;;;;;;1.55;1.55;;;;;;;26.84;34.02;92328.13;5059481;28;20528;-72
2022/04/27 11:35:02;;;;;;;2.08;1.98;;;;;;;26.67;33.97;92337.78;5059010;27;20228;-73
2022/04/27 11:37:35;;;;;;;2.10;2.00;;;;;;;26.84;34.13;92325.56;5058534;28;20589;-71
2022/04/27 11:40:13;;;;;;;2.10;1.85;;;;;;;27.40;34.16;92326.25;5059175;28;20200;-73
2022/04/27 11:42:47;;;;;;;3.20;2.92;;;;;;;27.68;34.21;92316.19;5058720;28;20219;-72
2022/04/27 11:45:22;;;;;;;2.53;2.35;;;;;;;27.55;36.15;92302.00;5058981;28;20462;-72
2022/04/27 11:47:58;;;;;;;2.60;2.40;;;;;;;27.03;32.69;92332.16;5058670;27;20651;-72
2022/04/27 11:50:26;;;;;;;2.80;2.60;;;;;;;27.16;33.54;92334.97;5058516;28;20468;-72
2022/04/27 11:52:58;;;;;;;2.03;1.92;;;;;;;27.58;32.68;92330.22;5061674;27;20192;-74
2022/04/27 11:55:26;;;;;;;2.30;1.83;;;;;;;27.29;34.21;92311.88;5060176;27;20728;-73